Indian Creek Village, Florida
Current Conditions -  °F | °C
As of 4:53 PM on Monday 20 Oct 2014 (Local Time) from KOPF Reporting Station
Overcast Overcast  
Wind Chill: 81°   Ceiling: 5000
Heat Index: 84°   Visibility: 10mi
Dew Point: 68°   Wind: 6mph
Humidity: 65%   Direction: 120°ESE
Pressure: 29.94"   Gusts: NA
Location:  25.882°N, 80.1292°W
Report Text: KOPF 202053Z 12005KT 10SM SCT044 BKN050 OVC070 27/20 A2994 RMK AO2 LTG DSNT S RAB38E47 SLP141 P0000 60000 T02720200 56011
Loading
Personal Weather Stations






























Interactive Weather Map
Tropical Storm Tracking
New forecast layout! Learn more

10-Day Weather Forecast

Advertisements
Track Severe Weather on mobile